createdAt,value
2022-11-08T00:01:39.936Z,75.40
2022-11-08T00:04:09.318Z,75.40
2022-11-08T00:07:13.104Z,75.40
2022-11-08T00:09:58.665Z,75.40
2022-11-08T00:12:43.968Z,75.40
2022-11-08T00:15:11.212Z,75.50
2022-11-08T00:17:38.014Z,75.50
2022-11-08T00:20:05.792Z,75.50
2022-11-08T00:22:35.738Z,75.40
2022-11-08T00:25:05.830Z,75.50
2022-11-08T00:27:32.974Z,75.30
2022-11-08T00:29:59.784Z,75.20
2022-11-08T00:32:27.074Z,75.30
2022-11-08T00:35:12.345Z,75.10
2022-11-08T00:37:39.324Z,75.30
2022-11-08T00:40:24.406Z,75.10
2022-11-08T00:42:51.419Z,75.10
2022-11-08T00:45:33.156Z,75.20
2022-11-08T00:48:00.000Z,75.10
2022-11-08T00:50:26.797Z,75.00
2022-11-08T00:52:56.260Z,75.00
2022-11-08T00:55:23.105Z,75.00
2022-11-08T00:58:00.589Z,75.00
2022-11-08T01:00:46.162Z,75.00
2022-11-08T01:03:21.962Z,75.00
2022-11-08T01:05:49.042Z,74.90
2022-11-08T01:08:34.275Z,74.70
2022-11-08T01:11:07.680Z,74.70
2022-11-08T01:13:35.187Z,74.70
2022-11-08T01:16:16.350Z,74.70
2022-11-08T01:18:44.591Z,74.60
2022-11-08T01:21:11.962Z,74.50
2022-11-08T01:23:38.801Z,74.60
2022-11-08T01:26:08.839Z,74.80
2022-11-08T01:28:36.634Z,75.00
2022-11-08T01:31:12.588Z,75.10
2022-11-08T01:33:39.920Z,75.30
2022-11-08T01:36:11.207Z,75.30
2022-11-08T01:38:38.354Z,75.20
2022-11-08T01:41:05.501Z,75.30
2022-11-08T01:43:58.693Z,75.10
2022-11-08T01:46:41.800Z,75.10
2022-11-08T01:49:40.040Z,75.10
2022-11-08T01:52:09.699Z,75.00
2022-11-08T01:55:00.427Z,75.00
2022-11-08T01:57:57.787Z,74.90
2022-11-08T02:00:27.685Z,74.70
2022-11-08T02:03:18.598Z,74.50
2022-11-08T02:05:46.578Z,74.50
2022-11-08T02:08:27.799Z,74.50
2022-11-08T02:10:54.735Z,74.50
2022-11-08T02:13:24.984Z,74.30
2022-11-08T02:15:51.831Z,74.40
2022-11-08T02:18:21.443Z,74.30
2022-11-08T02:21:20.817Z,74.40
2022-11-08T02:23:56.268Z,74.20
2022-11-08T02:26:34.334Z,74.20
2022-11-08T02:29:26.709Z,74.10
2022-11-08T02:31:54.904Z,74.30
2022-11-08T02:34:51.218Z,74.40
2022-11-08T02:37:20.646Z,74.60
2022-11-08T02:39:48.027Z,74.70
2022-11-08T02:42:19.755Z,74.70
2022-11-08T02:45:01.864Z,74.70
2022-11-08T02:47:28.681Z,74.60
2022-11-08T02:49:55.524Z,74.60
2022-11-08T02:52:25.045Z,74.60
2022-11-08T02:55:10.624Z,74.60
2022-11-08T02:57:37.493Z,74.60
2022-11-08T03:00:04.691Z,74.50
2022-11-08T03:02:31.636Z,74.30
2022-11-08T03:04:58.492Z,74.30
2022-11-08T03:07:28.352Z,74.20
2022-11-08T03:10:14.854Z,74.20
2022-11-08T03:12:43.070Z,74.10
2022-11-08T03:15:11.935Z,74.00
2022-11-08T03:17:38.865Z,74.00
2022-11-08T03:20:29.657Z,73.90
2022-11-08T03:23:01.114Z,73.70
2022-11-08T03:25:28.082Z,73.70
2022-11-08T03:27:54.877Z,73.40
2022-11-08T03:30:40.188Z,73.40
2022-11-08T03:33:07.099Z,73.40
2022-11-08T03:35:33.894Z,73.30
2022-11-08T03:38:00.789Z,73.40
2022-11-08T03:40:46.866Z,73.50
2022-11-08T03:43:14.220Z,73.40
2022-11-08T03:45:41.096Z,73.50
2022-11-08T03:48:08.096Z,73.40
2022-11-08T03:50:53.430Z,73.40
2022-11-08T03:53:20.320Z,73.40
2022-11-08T03:55:47.156Z,73.40
2022-11-08T03:58:14.015Z,73.50
2022-11-08T04:00:43.573Z,73.50
2022-11-08T04:03:28.958Z,73.40
2022-11-08T04:05:56.340Z,73.50
2022-11-08T04:08:41.923Z,73.50
2022-11-08T04:11:27.321Z,74.20
2022-11-08T04:14:15.688Z,73.50
2022-11-08T04:16:42.625Z,73.40
2022-11-08T04:19:28.346Z,73.40
2022-11-08T04:21:56.227Z,73.40
2022-11-08T04:24:23.358Z,73.20
2022-11-08T04:26:51.133Z,73.10
2022-11-08T04:29:18.007Z,73.10
2022-11-08T04:31:44.837Z,72.90
2022-11-08T04:34:11.697Z,72.90
2022-11-08T04:36:38.519Z,72.80
2022-11-08T04:39:05.447Z,72.70
2022-11-08T04:41:32.319Z,72.60
2022-11-08T04:43:59.252Z,72.50
2022-11-08T04:46:29.635Z,72.50
2022-11-08T04:48:58.626Z,72.50
2022-11-08T04:51:31.594Z,72.40
2022-11-08T04:54:00.331Z,72.30
2022-11-08T04:56:28.941Z,72.30
2022-11-08T04:58:58.353Z,72.20
2022-11-08T05:01:28.113Z,72.10
2022-11-08T05:03:55.463Z,72.10
2022-11-08T05:06:32.373Z,72.00
2022-11-08T05:09:00.520Z,72.00
2022-11-08T05:11:29.553Z,71.90
2022-11-08T05:13:56.826Z,71.80
2022-11-08T05:16:30.595Z,71.70
2022-11-08T05:18:57.537Z,71.70
2022-11-08T05:21:43.628Z,71.60
2022-11-08T05:24:12.540Z,71.60
2022-11-08T05:26:42.450Z,71.60
2022-11-08T05:29:10.177Z,71.60
2022-11-08T05:31:37.128Z,71.60
2022-11-08T05:34:04.070Z,71.50
2022-11-08T05:36:30.899Z,71.50
2022-11-08T05:39:00.987Z,71.50
2022-11-08T05:41:27.837Z,71.40
2022-11-08T05:43:56.105Z,71.40
2022-11-08T05:46:24.072Z,71.40
2022-11-08T05:48:54.230Z,71.30
2022-11-08T05:51:21.445Z,71.30
2022-11-08T05:53:48.867Z,71.20
2022-11-08T05:56:17.040Z,71.10
2022-11-08T05:58:44.271Z,71.10
2022-11-08T06:01:13.825Z,71.00
2022-11-08T06:03:43.946Z,71.00
2022-11-08T06:06:19.536Z,70.90
2022-11-08T06:08:50.391Z,71.00
2022-11-08T06:11:21.867Z,70.90
2022-11-08T06:14:00.810Z,70.80
2022-11-08T06:16:27.695Z,70.70
2022-11-08T06:18:54.558Z,70.60
2022-11-08T06:21:22.039Z,70.60
2022-11-08T06:23:54.967Z,70.70
2022-11-08T06:26:23.268Z,70.60
2022-11-08T06:28:50.180Z,70.60
2022-11-08T06:31:32.271Z,70.50
2022-11-08T06:33:59.247Z,70.50
2022-11-08T06:36:26.068Z,70.40
2022-11-08T06:39:11.471Z,70.40
2022-11-08T06:41:38.353Z,70.30
2022-11-08T06:44:05.266Z,70.30
2022-11-08T06:46:32.069Z,70.20
2022-11-08T06:48:58.891Z,70.10
2022-11-08T06:51:28.350Z,70.10
2022-11-08T06:53:55.301Z,70.00
2022-11-08T06:56:22.176Z,70.00
2022-11-08T06:59:08.599Z,70.00
2022-11-08T07:01:36.391Z,70.00
2022-11-08T07:04:22.045Z,69.90
2022-11-08T07:06:49.033Z,69.80
2022-11-08T07:09:15.845Z,69.80
2022-11-08T07:12:01.516Z,69.80
2022-11-08T07:14:28.288Z,69.70
2022-11-08T07:16:55.074Z,69.60
2022-11-08T07:19:21.885Z,69.60
2022-11-08T07:21:51.639Z,69.60
2022-11-08T07:24:18.478Z,69.60
2022-11-08T07:26:45.397Z,69.50
2022-11-08T07:29:15.911Z,69.40
2022-11-08T07:31:45.705Z,69.40
2022-11-08T07:34:12.580Z,69.30
2022-11-08T07:36:39.428Z,69.30
2022-11-08T07:39:25.020Z,69.20
2022-11-08T07:41:51.862Z,69.20
2022-11-08T07:44:21.260Z,69.10
2022-11-08T07:46:48.097Z,69.20
2022-11-08T07:49:14.958Z,69.10
2022-11-08T07:51:41.916Z,69.10
2022-11-08T07:54:11.620Z,69.10
2022-11-08T07:56:56.621Z,69.10
2022-11-08T07:59:23.411Z,69.10
2022-11-08T08:01:50.268Z,69.10
2022-11-08T08:04:17.174Z,69.10
2022-11-08T08:06:44.013Z,69.10
2022-11-08T08:09:10.947Z,69.00
2022-11-08T08:11:40.701Z,69.00
2022-11-08T08:14:07.571Z,69.00
2022-11-08T08:16:36.804Z,69.00
2022-11-08T08:19:22.333Z,68.90
2022-11-08T08:21:49.154Z,69.00
2022-11-08T08:24:16.123Z,69.00
2022-11-08T08:26:42.931Z,69.10
2022-11-08T08:29:28.836Z,69.00
2022-11-08T08:31:56.129Z,69.00
2022-11-08T08:34:22.934Z,69.00
2022-11-08T08:36:49.719Z,69.10
2022-11-08T08:39:16.518Z,69.20
2022-11-08T08:41:43.483Z,69.30
2022-11-08T08:44:10.800Z,69.20
2022-11-08T08:46:56.387Z,69.20
2022-11-08T08:49:23.252Z,69.20
2022-11-08T08:52:09.166Z,69.30
2022-11-08T08:54:36.120Z,69.30
2022-11-08T08:57:02.960Z,69.20
2022-11-08T09:02:25.532Z,69.00
2022-11-08T09:04:52.396Z,69.00
2022-11-08T09:07:19.255Z,68.90
2022-11-08T09:09:49.004Z,68.90
2022-11-08T09:12:15.788Z,68.70
2022-11-08T09:14:42.604Z,68.70
2022-11-08T09:17:09.484Z,68.60
2022-11-08T09:19:36.355Z,68.70
2022-11-08T09:22:03.217Z,68.50
2022-11-08T09:24:48.949Z,68.50
2022-11-08T09:27:15.799Z,68.70
2022-11-08T09:30:01.146Z,68.80
2022-11-08T09:32:39.622Z,69.00
2022-11-08T09:35:15.437Z,69.00
2022-11-08T09:37:45.604Z,69.20
2022-11-08T09:40:23.899Z,69.30
2022-11-08T09:42:59.727Z,69.00
2022-11-08T09:45:34.324Z,69.00
2022-11-08T09:48:17.076Z,69.20
2022-11-08T09:50:46.258Z,69.10
2022-11-08T09:53:40.994Z,69.10
2022-11-08T09:56:19.469Z,69.10
2022-11-08T09:59:23.532Z,69.00
2022-11-08T10:01:50.599Z,69.10
2022-11-08T10:04:21.305Z,69.20
2022-11-08T10:07:07.666Z,69.10
2022-11-08T10:09:59.512Z,69.00
2022-11-08T10:12:43.921Z,68.80
2022-11-08T10:15:40.696Z,68.70
2022-11-08T10:18:29.956Z,68.80
2022-11-08T10:21:34.852Z,68.30
2022-11-08T10:24:17.024Z,68.90
2022-11-08T10:26:52.311Z,69.10
2022-11-08T10:29:43.157Z,68.80
2022-11-08T10:32:18.975Z,68.90
2022-11-08T10:34:55.201Z,69.00
2022-11-08T10:37:24.127Z,68.70
2022-11-08T10:40:22.483Z,69.00
2022-11-08T10:42:59.376Z,69.20
2022-11-08T10:45:26.231Z,69.30
2022-11-08T10:47:54.302Z,69.30
2022-11-08T10:50:40.064Z,69.30
2022-11-08T10:53:20.384Z,69.30
2022-11-08T10:55:58.306Z,69.00
2022-11-08T10:58:29.239Z,69.10
2022-11-08T11:01:05.693Z,69.70
2022-11-08T11:03:32.611Z,68.90
2022-11-08T11:06:05.544Z,68.90
2022-11-08T11:08:33.450Z,69.10
2022-11-08T11:11:37.476Z,69.10
2022-11-08T11:14:14.494Z,69.30
2022-11-08T11:16:50.739Z,69.60
2022-11-08T11:19:35.647Z,69.20
2022-11-08T11:22:07.253Z,69.20
2022-11-08T11:24:49.850Z,69.20
2022-11-08T11:27:37.232Z,68.90
2022-11-08T11:30:30.492Z,68.80
2022-11-08T11:33:24.286Z,68.70
2022-11-08T11:36:13.449Z,68.50
2022-11-08T11:38:53.512Z,68.20
2022-11-08T11:45:13.182Z,69.00
2022-11-08T11:47:48.038Z,69.00
2022-11-08T11:50:21.698Z,69.10
2022-11-08T11:52:48.846Z,68.70
2022-11-08T11:55:49.942Z,68.90
2022-11-08T11:58:32.582Z,69.70
2022-11-08T12:01:36.035Z,68.90
2022-11-08T12:04:10.438Z,68.80
2022-11-08T12:07:15.459Z,68.90
2022-11-08T12:10:15.238Z,68.90
2022-11-08T12:13:13.546Z,69.10
2022-11-08T12:15:44.514Z,69.00
2022-11-08T12:18:44.004Z,69.00
2022-11-08T12:21:17.525Z,69.20
2022-11-08T12:23:53.556Z,69.30
2022-11-08T12:26:40.110Z,69.20
2022-11-08T12:29:25.570Z,69.40
2022-11-08T12:32:16.245Z,69.40
2022-11-08T12:35:25.478Z,69.60
2022-11-08T12:38:05.853Z,69.60
2022-11-08T12:40:47.838Z,69.50
2022-11-08T12:43:35.882Z,69.70
2022-11-08T12:46:18.179Z,69.80
2022-11-08T12:49:12.865Z,69.60
2022-11-08T12:52:17.896Z,69.80
2022-11-08T12:54:50.934Z,70.00
2022-11-08T12:57:28.101Z,70.10
2022-11-08T13:00:16.079Z,70.10
2022-11-08T13:02:44.319Z,70.10
2022-11-08T13:05:11.505Z,70.10
2022-11-08T13:08:18.135Z,70.00
2022-11-08T13:11:09.231Z,70.20
2022-11-08T13:13:54.744Z,70.30
2022-11-08T13:16:24.310Z,70.30
2022-11-08T13:18:52.216Z,70.40
2022-11-08T13:21:28.268Z,70.60
2022-11-08T13:24:42.803Z,70.60
2022-11-08T13:27:23.988Z,70.50
2022-11-08T13:29:52.747Z,70.50
2022-11-08T13:33:13.984Z,70.70
2022-11-08T13:36:18.707Z,70.90
2022-11-08T13:39:28.599Z,70.60
2022-11-08T13:42:16.509Z,70.80
2022-11-08T13:44:55.467Z,70.90
2022-11-08T13:47:41.524Z,70.90
2022-11-08T13:50:37.736Z,71.00
2022-11-08T13:53:19.648Z,71.10
2022-11-08T13:55:47.882Z,71.30
2022-11-08T13:58:41.765Z,71.40
2022-11-08T14:01:23.855Z,71.30
2022-11-08T14:03:50.898Z,71.50
2022-11-08T14:06:49.268Z,71.40
2022-11-08T14:09:40.766Z,72.10
2022-11-08T14:12:36.501Z,71.40
2022-11-08T14:15:33.495Z,71.60
2022-11-08T14:18:28.821Z,71.10
2022-11-08T14:20:56.901Z,71.10
2022-11-08T14:23:39.342Z,71.50
2022-11-08T14:26:17.172Z,71.30
2022-11-08T14:28:46.555Z,71.40
2022-11-08T14:31:33.934Z,71.50
2022-11-08T14:34:01.634Z,71.50
2022-11-08T14:36:31.090Z,71.50
2022-11-08T14:39:17.123Z,71.40
2022-11-08T14:41:55.433Z,71.40
2022-11-08T14:44:23.590Z,71.60
2022-11-08T14:46:51.412Z,71.50
2022-11-08T14:49:36.505Z,71.60
2022-11-08T14:52:26.560Z,71.70
2022-11-08T14:55:03.976Z,71.60
2022-11-08T14:57:49.182Z,71.70
2022-11-08T15:00:20.073Z,71.40
2022-11-08T15:03:06.604Z,71.60
2022-11-08T15:05:37.868Z,71.50
2022-11-08T15:08:34.180Z,71.80
2022-11-08T15:11:04.886Z,71.60
2022-11-08T15:13:45.279Z,71.80
2022-11-08T15:16:12.781Z,71.80
2022-11-08T15:18:41.782Z,71.80
2022-11-08T15:21:11.677Z,71.90
2022-11-08T15:23:50.116Z,71.70
2022-11-08T15:26:27.859Z,71.90
2022-11-08T15:28:58.415Z,71.90
2022-11-08T15:31:29.706Z,71.90
2022-11-08T15:33:56.769Z,71.90
2022-11-08T15:36:31.694Z,71.90
2022-11-08T15:38:59.286Z,72.00
2022-11-08T15:41:33.815Z,72.00
2022-11-08T15:44:14.451Z,71.90
2022-11-08T15:46:42.225Z,72.20
2022-11-08T15:49:20.918Z,72.10
2022-11-08T15:51:49.837Z,72.10
2022-11-08T15:54:18.446Z,72.20
2022-11-08T15:56:46.531Z,72.30
2022-11-08T15:59:22.721Z,72.20
2022-11-08T16:01:53.732Z,72.20
2022-11-08T16:04:20.960Z,72.40
2022-11-08T16:06:47.905Z,72.40
2022-11-08T16:09:15.022Z,72.50
2022-11-08T16:12:03.165Z,72.60
2022-11-08T16:14:30.249Z,72.70
2022-11-08T16:16:57.763Z,72.70
2022-11-08T16:19:25.571Z,72.60
2022-11-08T16:21:52.932Z,72.70
2022-11-08T16:24:19.956Z,72.60
2022-11-08T16:26:47.564Z,72.60
2022-11-08T16:29:24.312Z,72.70
2022-11-08T16:31:51.836Z,72.70
2022-11-08T16:34:19.797Z,72.80
2022-11-08T16:36:48.601Z,72.80
2022-11-08T16:39:27.393Z,72.70
2022-11-08T16:41:54.301Z,72.70
2022-11-08T16:44:21.134Z,72.60
2022-11-08T16:46:48.074Z,72.70
2022-11-08T16:49:26.694Z,72.70
2022-11-08T16:51:53.744Z,72.80
2022-11-08T16:54:28.209Z,72.70
2022-11-08T16:57:20.601Z,72.70
2022-11-08T16:59:43.887Z,72.70
2022-11-08T17:02:29.398Z,72.70
2022-11-08T17:05:17.302Z,72.80
2022-11-08T17:07:47.282Z,72.80
2022-11-08T17:10:32.772Z,72.80
2022-11-08T17:12:59.801Z,72.90
2022-11-08T17:15:45.730Z,72.80
2022-11-08T17:18:15.005Z,72.90
2022-11-08T17:20:41.890Z,73.00
2022-11-08T17:23:09.449Z,72.90
2022-11-08T17:25:42.800Z,72.80
2022-11-08T17:28:11.138Z,72.90
2022-11-08T17:30:44.123Z,72.90
2022-11-08T17:33:12.806Z,73.00
2022-11-08T17:35:43.958Z,72.90
2022-11-08T17:38:12.139Z,72.90
2022-11-08T17:40:48.080Z,72.90
2022-11-08T17:43:16.271Z,72.90
2022-11-08T17:46:03.471Z,72.90
2022-11-08T17:48:31.587Z,72.80
2022-11-08T17:51:17.355Z,72.90
2022-11-08T17:53:44.409Z,72.80
2022-11-08T17:56:11.820Z,72.90
2022-11-08T17:58:57.368Z,72.80
2022-11-08T18:01:24.425Z,72.80
2022-11-08T18:04:11.095Z,72.80
2022-11-08T18:06:41.253Z,72.80
2022-11-08T18:09:09.663Z,72.80
2022-11-08T18:11:37.183Z,72.80
2022-11-08T18:14:04.436Z,72.70
2022-11-08T18:16:31.981Z,72.60
2022-11-08T18:18:59.330Z,72.80
2022-11-08T18:21:26.178Z,72.80
2022-11-08T18:23:52.968Z,72.70
2022-11-08T18:26:19.782Z,72.70
2022-11-08T18:28:46.953Z,72.70
2022-11-08T18:31:16.442Z,72.70
2022-11-08T18:33:43.995Z,72.80
2022-11-08T18:36:16.762Z,72.70
2022-11-08T18:38:45.719Z,72.70
2022-11-08T18:41:15.414Z,72.70
2022-11-08T18:43:42.353Z,72.70
2022-11-08T18:46:13.687Z,72.70
2022-11-08T18:48:40.936Z,72.80
2022-11-08T18:51:10.766Z,72.70
2022-11-08T18:53:38.685Z,72.80
2022-11-08T18:56:18.000Z,72.90
2022-11-08T18:58:45.501Z,72.70
2022-11-08T19:01:13.257Z,72.90
2022-11-08T19:03:40.652Z,72.80
2022-11-08T19:06:08.100Z,72.70
2022-11-08T19:08:36.716Z,72.80
2022-11-08T19:11:13.082Z,72.80
2022-11-08T19:13:41.168Z,72.80
2022-11-08T19:16:19.486Z,72.80
2022-11-08T19:18:47.048Z,72.60
2022-11-08T19:21:22.788Z,72.70
2022-11-08T19:23:50.673Z,72.80
2022-11-08T19:26:22.863Z,73.10
2022-11-08T19:28:50.615Z,73.20
2022-11-08T19:31:22.002Z,73.30
2022-11-08T19:34:07.542Z,73.20
2022-11-08T19:36:38.058Z,73.30
2022-11-08T19:39:04.849Z,73.20
2022-11-08T19:41:31.685Z,73.20
2022-11-08T19:43:58.521Z,73.20
2022-11-08T19:46:30.964Z,73.20
2022-11-08T19:49:01.497Z,73.20
2022-11-08T19:51:31.641Z,73.20
2022-11-08T19:54:07.419Z,73.10
2022-11-08T19:57:04.919Z,72.90
2022-11-08T19:59:22.929Z,73.10
2022-11-08T20:01:49.803Z,73.10
2022-11-08T20:04:18.567Z,73.00
2022-11-08T20:06:46.387Z,73.00
2022-11-08T20:09:13.581Z,73.10
2022-11-08T20:11:41.711Z,72.90
2022-11-08T20:14:10.793Z,72.90
2022-11-08T20:16:40.917Z,72.80
2022-11-08T20:19:16.494Z,72.80
2022-11-08T20:21:46.206Z,72.90
2022-11-08T20:24:13.724Z,72.80
2022-11-08T20:26:41.509Z,72.90
2022-11-08T20:29:27.631Z,72.80
2022-11-08T20:31:54.685Z,72.80
2022-11-08T20:34:21.450Z,72.80
2022-11-08T20:36:48.485Z,72.80
2022-11-08T20:39:15.998Z,72.70
2022-11-08T20:41:43.312Z,72.60
2022-11-08T20:44:10.605Z,72.60
2022-11-08T20:46:38.517Z,72.50
2022-11-08T20:49:06.211Z,72.70
2022-11-08T20:51:33.989Z,72.60
2022-11-08T20:54:01.719Z,72.60
2022-11-08T20:56:29.317Z,72.60
2022-11-08T20:59:05.488Z,72.60
2022-11-08T21:01:36.185Z,72.60
2022-11-08T21:04:03.464Z,72.60
2022-11-08T21:06:36.109Z,72.70
2022-11-08T21:09:25.527Z,72.80
2022-11-08T21:11:50.911Z,72.80
2022-11-08T21:14:17.820Z,72.80
2022-11-08T21:17:14.561Z,72.80
2022-11-08T21:19:31.479Z,72.80
2022-11-08T21:22:15.114Z,72.80
2022-11-08T21:24:43.545Z,72.80
2022-11-08T21:27:10.726Z,72.90
2022-11-08T21:29:37.585Z,72.90
2022-11-08T21:32:05.422Z,73.10
2022-11-08T21:34:39.645Z,73.10
2022-11-08T21:37:09.951Z,73.10
2022-11-08T21:39:36.777Z,73.00
2022-11-08T21:42:21.632Z,73.30
2022-11-08T21:44:48.480Z,73.30
2022-11-08T21:47:15.365Z,73.50
2022-11-08T21:49:42.224Z,73.40
2022-11-08T21:52:09.245Z,74.20
2022-11-08T21:54:36.345Z,73.50
2022-11-08T21:57:09.037Z,73.40
2022-11-08T21:59:35.953Z,73.30
2022-11-08T22:02:06.287Z,73.30
2022-11-08T22:04:33.099Z,73.40
2022-11-08T22:06:59.972Z,73.50
2022-11-08T22:09:27.109Z,73.40
2022-11-08T22:12:12.732Z,73.50
2022-11-08T22:14:39.686Z,73.50
2022-11-08T22:17:25.121Z,73.50
2022-11-08T22:19:51.973Z,73.50
2022-11-08T22:22:18.783Z,73.50
2022-11-08T22:24:45.727Z,73.40
2022-11-08T22:27:12.554Z,73.40
2022-11-08T22:29:39.409Z,73.40
2022-11-08T22:32:06.539Z,73.50
2022-11-08T22:34:36.282Z,73.50
2022-11-08T22:37:05.812Z,73.50
2022-11-08T22:39:51.187Z,73.60
2022-11-08T22:42:18.174Z,73.60
2022-11-08T22:44:45.031Z,73.60
2022-11-08T22:47:12.080Z,73.50
2022-11-08T22:49:44.792Z,73.60
2022-11-08T22:52:11.908Z,73.70
2022-11-08T22:54:38.871Z,73.70
2022-11-08T22:57:05.783Z,73.80
2022-11-08T22:59:35.539Z,73.70
2022-11-08T23:02:02.402Z,73.70
2022-11-08T23:04:29.268Z,73.90
2022-11-08T23:06:56.130Z,74.00
2022-11-08T23:09:25.868Z,74.10
2022-11-08T23:12:11.390Z,74.10
2022-11-08T23:15:15.031Z,74.10
2022-11-08T23:17:41.872Z,74.00
2022-11-08T23:20:27.814Z,74.00
2022-11-08T23:23:13.022Z,73.90
2022-11-08T23:25:39.889Z,74.00
2022-11-08T23:28:24.988Z,73.90
2022-11-08T23:31:10.398Z,74.00
2022-11-08T23:33:42.087Z,73.90
2022-11-08T23:36:11.570Z,73.80
2022-11-08T23:38:39.201Z,73.80
2022-11-08T23:41:24.539Z,73.70
2022-11-08T23:44:09.842Z,73.80
2022-11-08T23:46:57.823Z,73.70
2022-11-08T23:49:25.380Z,73.80
2022-11-08T23:51:58.229Z,73.80
2022-11-08T23:54:25.068Z,73.70
2022-11-08T23:57:10.155Z,74.50
2022-11-08T23:59:37.002Z,73.50
